createdAt,value
2017-08-26T00:01:34.211Z,95.80
2017-08-26T00:04:01.710Z,95.80
2017-08-26T00:06:29.256Z,96.00
2017-08-26T00:08:56.750Z,95.80
2017-08-26T00:11:24.251Z,95.80
2017-08-26T00:13:52.670Z,95.90
2017-08-26T00:16:20.180Z,95.90
2017-08-26T00:18:48.086Z,96.00
2017-08-26T00:21:15.580Z,95.70
2017-08-26T00:23:43.108Z,95.70
2017-08-26T00:26:10.611Z,95.70
2017-08-26T00:28:38.118Z,95.60
2017-08-26T00:31:05.618Z,95.30
2017-08-26T00:33:33.159Z,95.10
2017-08-26T00:36:00.663Z,95.20
2017-08-26T00:38:28.170Z,95.30
2017-08-26T00:40:56.600Z,95.50
2017-08-26T00:43:26.104Z,95.70
2017-08-26T00:45:53.639Z,95.90
2017-08-26T00:48:21.159Z,96.00
2017-08-26T00:50:48.699Z,96.50
2017-08-26T00:53:16.238Z,96.30
2017-08-26T00:55:43.729Z,96.70
2017-08-26T00:58:11.252Z,97.40
2017-08-26T01:00:38.735Z,97.60
2017-08-26T01:03:06.268Z,98.00
2017-08-26T01:05:33.767Z,97.80
2017-08-26T01:08:03.221Z,97.30
2017-08-26T01:10:30.713Z,96.80
2017-08-26T01:12:58.230Z,96.20
2017-08-26T01:15:25.731Z,95.90
2017-08-26T01:17:54.028Z,96.00
2017-08-26T01:20:21.560Z,96.00
2017-08-26T01:22:49.058Z,96.30
2017-08-26T01:25:16.556Z,96.20
2017-08-26T01:27:44.064Z,96.20
2017-08-26T01:30:11.558Z,96.10
2017-08-26T01:32:39.066Z,96.10
2017-08-26T01:35:07.553Z,96.00
2017-08-26T01:37:35.058Z,96.20
2017-08-26T01:40:02.577Z,96.20
2017-08-26T01:42:30.068Z,96.20
2017-08-26T01:44:57.566Z,96.30
2017-08-26T01:47:25.053Z,96.10
2017-08-26T01:49:52.581Z,95.90
2017-08-26T01:52:20.066Z,96.10
2017-08-26T01:54:47.618Z,96.10
2017-08-26T01:57:15.102Z,96.00
2017-08-26T01:59:42.602Z,95.90
2017-08-26T02:02:12.058Z,96.20
2017-08-26T02:04:39.549Z,96.20
2017-08-26T02:07:07.058Z,96.30
2017-08-26T02:09:35.442Z,96.40
2017-08-26T02:12:02.963Z,96.30
2017-08-26T02:14:31.403Z,96.00
2017-08-26T02:16:58.906Z,95.90
2017-08-26T02:19:26.398Z,95.80
2017-08-26T02:21:53.878Z,95.70
2017-08-26T02:24:21.378Z,95.50
2017-08-26T02:26:48.862Z,95.70
2017-08-26T02:29:16.378Z,95.60
2017-08-26T02:31:43.870Z,95.70
2017-08-26T02:34:11.378Z,95.70
2017-08-26T02:36:38.866Z,95.80
2017-08-26T02:39:06.387Z,96.00
2017-08-26T02:41:33.899Z,95.70
2017-08-26T02:44:01.387Z,95.60
2017-08-26T02:46:28.908Z,95.60
2017-08-26T02:48:56.403Z,95.80
2017-08-26T02:51:26.952Z,95.70
2017-08-26T02:53:56.490Z,95.70
2017-08-26T02:56:23.993Z,95.70
2017-08-26T02:58:51.510Z,95.60
2017-08-26T03:01:19.966Z,95.80
2017-08-26T03:03:47.462Z,96.20
2017-08-26T03:06:14.975Z,96.40
2017-08-26T03:08:42.457Z,96.30
2017-08-26T03:11:09.947Z,96.50
2017-08-26T03:13:37.450Z,96.70
2017-08-26T03:16:05.010Z,96.70
2017-08-26T03:18:32.499Z,96.70
2017-08-26T03:21:00.002Z,96.60
2017-08-26T03:23:27.490Z,96.50
2017-08-26T03:25:55.032Z,96.50
2017-08-26T03:28:22.519Z,96.40
2017-08-26T03:30:50.919Z,96.20
2017-08-26T03:33:18.410Z,96.10
2017-08-26T03:35:45.904Z,96.20
2017-08-26T03:38:13.406Z,96.10
2017-08-26T03:40:41.843Z,96.20
2017-08-26T03:43:09.331Z,96.30
2017-08-26T03:45:36.835Z,96.20
2017-08-26T03:48:04.323Z,95.80
2017-08-26T03:50:31.825Z,95.80
2017-08-26T03:52:59.306Z,95.90
2017-08-26T03:55:28.736Z,96.00
2017-08-26T03:57:56.222Z,96.10
2017-08-26T04:00:23.730Z,96.00
2017-08-26T04:02:51.215Z,96.30
2017-08-26T04:05:18.723Z,96.40
2017-08-26T04:07:47.155Z,96.40
2017-08-26T04:10:14.674Z,96.40
2017-08-26T04:12:42.154Z,96.40
2017-08-26T04:15:09.654Z,96.50
2017-08-26T04:17:37.153Z,96.50
2017-08-26T04:20:04.658Z,96.40
2017-08-26T04:22:32.154Z,96.50
2017-08-26T04:24:59.662Z,96.70
2017-08-26T04:27:27.156Z,96.70
2017-08-26T04:29:54.655Z,96.70
2017-08-26T04:32:22.163Z,96.50
2017-08-26T04:34:49.687Z,96.50
2017-08-26T04:37:17.176Z,96.40
2017-08-26T04:39:44.686Z,96.40
2017-08-26T04:42:13.122Z,96.70
2017-08-26T04:44:40.634Z,96.70
2017-08-26T04:47:08.115Z,96.60
2017-08-26T04:49:35.618Z,96.40
2017-08-26T04:52:03.135Z,96.10
2017-08-26T04:54:30.654Z,96.20
2017-08-26T04:56:58.152Z,96.60
2017-08-26T04:59:25.642Z,96.50
2017-08-26T05:01:53.146Z,96.40
2017-08-26T05:04:20.644Z,96.30
2017-08-26T05:06:50.107Z,96.20
2017-08-26T05:09:17.596Z,95.90
2017-08-26T05:11:45.100Z,96.10
2017-08-26T05:14:13.533Z,96.40
2017-08-26T05:16:41.034Z,97.00
2017-08-26T05:19:08.519Z,97.60
2017-08-26T05:21:37.931Z,97.60
2017-08-26T05:24:05.414Z,97.50
2017-08-26T05:26:32.922Z,97.60
2017-08-26T05:29:00.422Z,97.70
2017-08-26T05:31:27.934Z,97.90
2017-08-26T05:33:55.424Z,98.10
2017-08-26T05:36:24.916Z,98.00
2017-08-26T05:38:52.411Z,98.10
2017-08-26T05:41:19.910Z,98.20
2017-08-26T05:43:47.402Z,98.30
2017-08-26T05:46:14.927Z,98.00
2017-08-26T05:48:42.416Z,97.30
2017-08-26T05:51:09.923Z,96.70
2017-08-26T05:53:37.418Z,96.10
2017-08-26T05:56:04.935Z,96.10
2017-08-26T05:58:32.434Z,95.50
2017-08-26T06:00:59.934Z,95.40
2017-08-26T06:03:27.427Z,95.10
2017-08-26T06:05:54.923Z,95.00
2017-08-26T06:08:22.408Z,94.60
2017-08-26T06:10:49.924Z,94.90
2017-08-26T06:13:17.438Z,94.80
2017-08-26T06:15:44.942Z,94.80
2017-08-26T06:18:12.442Z,94.70
2017-08-26T06:20:39.958Z,94.60
2017-08-26T06:23:07.466Z,94.60
2017-08-26T06:25:34.970Z,94.50
2017-08-26T06:28:03.442Z,94.70
2017-08-26T06:30:30.958Z,94.70
2017-08-26T06:32:58.450Z,94.30
2017-08-26T06:35:25.962Z,94.30
2017-08-26T06:37:53.456Z,94.20
2017-08-26T06:40:20.974Z,93.10
2017-08-26T06:42:48.462Z,93.00
2017-08-26T06:45:15.958Z,93.30
2017-08-26T06:47:43.464Z,93.20
2017-08-26T06:50:10.982Z,93.80
2017-08-26T06:52:39.442Z,94.70
2017-08-26T06:55:06.982Z,94.60
2017-08-26T06:57:34.479Z,95.60
2017-08-26T07:00:01.974Z,95.80
2017-08-26T07:02:29.467Z,96.10
2017-08-26T07:04:58.914Z,96.30
2017-08-26T07:07:26.407Z,95.70
2017-08-26T07:09:53.926Z,96.40
2017-08-26T07:12:21.419Z,96.30
2017-08-26T07:14:48.958Z,95.30
2017-08-26T07:17:16.455Z,94.20
2017-08-26T07:19:43.958Z,94.20
2017-08-26T07:22:11.478Z,95.10
2017-08-26T07:24:38.966Z,94.40
2017-08-26T07:27:06.476Z,94.80
2017-08-26T07:29:33.998Z,95.80
2017-08-26T07:32:01.508Z,93.90
2017-08-26T07:34:28.998Z,92.90
2017-08-26T07:36:56.512Z,93.40
2017-08-26T07:39:24.009Z,94.40
2017-08-26T07:41:51.523Z,94.40
2017-08-26T07:44:19.016Z,94.30
2017-08-26T07:46:46.527Z,93.90
2017-08-26T07:49:14.067Z,93.80
2017-08-26T07:51:42.526Z,93.10
2017-08-26T07:54:10.030Z,91.20
2017-08-26T07:56:37.519Z,91.30
2017-08-26T07:59:05.046Z,92.00
2017-08-26T08:01:33.483Z,93.10
2017-08-26T08:04:01.030Z,93.80
2017-08-26T08:06:29.464Z,93.50
2017-08-26T08:08:57.016Z,93.50
2017-08-26T08:11:24.528Z,94.30
2017-08-26T08:13:52.034Z,94.50
2017-08-26T08:16:19.532Z,94.00
2017-08-26T08:18:47.058Z,93.90
2017-08-26T08:21:14.580Z,94.20
2017-08-26T08:23:42.099Z,93.10
2017-08-26T08:26:09.599Z,93.00
2017-08-26T08:28:39.065Z,93.50
2017-08-26T08:31:06.976Z,93.10
2017-08-26T08:33:34.492Z,92.60
2017-08-26T08:36:01.982Z,92.70
2017-08-26T08:38:29.486Z,93.80
2017-08-26T08:40:56.967Z,93.40
2017-08-26T08:43:24.475Z,93.70
2017-08-26T08:45:52.013Z,92.70
2017-08-26T08:48:19.527Z,93.20
2017-08-26T08:50:47.047Z,92.40
2017-08-26T08:53:14.538Z,92.40
2017-08-26T08:55:42.066Z,92.40
2017-08-26T08:58:09.552Z,92.30
2017-08-26T09:00:37.081Z,92.40
2017-08-26T09:03:04.614Z,92.00
2017-08-26T09:05:32.103Z,92.40
2017-08-26T09:07:59.604Z,91.70
2017-08-26T09:10:27.130Z,91.50
2017-08-26T09:12:54.667Z,90.80
2017-08-26T09:15:22.189Z,91.20
2017-08-26T09:17:50.630Z,91.50
2017-08-26T09:20:18.148Z,90.60
2017-08-26T09:22:45.671Z,91.30
2017-08-26T09:25:13.162Z,91.70
2017-08-26T09:27:40.652Z,90.00
2017-08-26T09:30:08.155Z,90.80
2017-08-26T09:32:35.654Z,90.70
2017-08-26T09:35:03.163Z,90.90
2017-08-26T09:37:30.655Z,90.30
2017-08-26T09:39:58.179Z,90.30
2017-08-26T09:42:25.671Z,90.60
2017-08-26T09:44:53.176Z,90.10
2017-08-26T09:47:20.661Z,90.80
2017-08-26T09:49:49.082Z,92.10
2017-08-26T09:52:16.594Z,90.30
2017-08-26T09:54:44.086Z,89.50
2017-08-26T09:57:11.599Z,89.80
2017-08-26T09:59:39.088Z,90.50
2017-08-26T10:02:06.600Z,90.80
2017-08-26T10:04:34.099Z,89.60
2017-08-26T10:07:01.610Z,90.10
2017-08-26T10:09:29.108Z,90.40
2017-08-26T10:11:56.586Z,89.90
2017-08-26T10:14:24.086Z,89.90
2017-08-26T10:16:51.574Z,90.90
2017-08-26T10:19:19.095Z,89.90
2017-08-26T10:21:46.595Z,90.70
2017-08-26T10:24:15.002Z,90.20
2017-08-26T10:26:42.495Z,90.60
2017-08-26T10:29:11.988Z,90.90
2017-08-26T10:31:39.486Z,90.30
2017-08-26T10:34:07.003Z,89.80
2017-08-26T10:36:34.495Z,89.30
2017-08-26T10:39:02.930Z,89.10
2017-08-26T10:41:32.407Z,88.50
2017-08-26T10:43:59.902Z,89.00
2017-08-26T10:46:27.451Z,89.20
2017-08-26T10:48:55.007Z,87.10
2017-08-26T10:51:22.515Z,87.50
2017-08-26T10:53:50.023Z,87.90
2017-08-26T10:56:17.509Z,87.70
2017-08-26T10:58:45.020Z,87.30
2017-08-26T11:01:12.511Z,87.50
2017-08-26T11:03:40.022Z,87.80
2017-08-26T11:06:07.510Z,88.50
2017-08-26T11:08:36.978Z,87.50
2017-08-26T11:11:04.512Z,88.60
2017-08-26T11:13:32.952Z,87.50
2017-08-26T11:16:00.462Z,87.60
2017-08-26T11:18:27.946Z,87.20
2017-08-26T11:20:55.454Z,86.90
2017-08-26T11:23:23.882Z,86.90
2017-08-26T11:25:51.398Z,85.60
2017-08-26T11:28:18.891Z,87.00
2017-08-26T11:30:46.378Z,86.40
2017-08-26T11:33:13.886Z,85.30
2017-08-26T11:35:41.380Z,86.10
2017-08-26T11:38:08.926Z,86.10
2017-08-26T11:40:36.414Z,85.50
2017-08-26T11:43:05.894Z,85.80
2017-08-26T11:45:33.398Z,86.30
2017-08-26T11:48:00.918Z,84.00
2017-08-26T11:50:28.477Z,84.70
2017-08-26T11:52:55.979Z,84.80
2017-08-26T11:55:23.490Z,84.30
2017-08-26T11:57:50.984Z,84.60
2017-08-26T12:00:18.557Z,84.70
2017-08-26T12:02:46.042Z,84.90
2017-08-26T12:05:13.547Z,85.10
2017-08-26T12:07:41.065Z,85.20
2017-08-26T12:10:08.568Z,83.60
2017-08-26T12:12:36.079Z,84.40
2017-08-26T12:15:03.563Z,83.00
2017-08-26T12:17:31.078Z,83.60
2017-08-26T12:19:58.578Z,84.00
2017-08-26T12:22:26.116Z,82.70
2017-08-26T12:24:53.614Z,83.60
2017-08-26T12:27:22.066Z,82.70
2017-08-26T12:29:49.570Z,82.10
2017-08-26T12:32:18.014Z,82.70
2017-08-26T12:34:46.438Z,82.20
2017-08-26T12:37:13.939Z,82.80
2017-08-26T12:39:41.435Z,83.40
2017-08-26T12:42:10.911Z,83.30
2017-08-26T12:44:38.391Z,83.20
2017-08-26T12:47:05.914Z,82.50
2017-08-26T12:49:33.393Z,82.00
2017-08-26T12:52:00.914Z,81.10
2017-08-26T12:54:28.411Z,81.10
2017-08-26T12:56:55.935Z,80.60
2017-08-26T12:59:23.435Z,81.40
2017-08-26T13:01:51.009Z,81.50
2017-08-26T13:04:18.512Z,81.60
2017-08-26T13:06:46.977Z,80.70
2017-08-26T13:09:14.462Z,81.10
2017-08-26T13:11:41.986Z,82.20
2017-08-26T13:14:09.491Z,82.60
2017-08-26T13:16:37.952Z,81.30
2017-08-26T13:19:05.458Z,80.10
2017-08-26T13:21:32.942Z,80.70
2017-08-26T13:24:00.459Z,81.70
2017-08-26T13:26:27.959Z,81.80
2017-08-26T13:28:55.465Z,81.60
2017-08-26T13:31:22.954Z,80.80
2017-08-26T13:33:52.755Z,80.90
2017-08-26T13:36:20.240Z,81.00
2017-08-26T13:38:47.751Z,81.60
2017-08-26T13:41:15.231Z,81.30
2017-08-26T13:43:42.751Z,80.70
2017-08-26T13:46:10.251Z,80.20
2017-08-26T13:48:37.751Z,80.60
2017-08-26T13:51:05.234Z,80.10
2017-08-26T13:53:34.727Z,79.90
2017-08-26T13:56:02.216Z,80.70
2017-08-26T13:58:29.718Z,79.80
2017-08-26T14:00:58.150Z,79.60
2017-08-26T14:03:40.407Z,79.70
2017-08-26T14:06:07.883Z,80.10
2017-08-26T14:08:36.277Z,81.40
2017-08-26T14:11:03.758Z,80.50
2017-08-26T14:13:33.217Z,80.70
2017-08-26T14:16:00.691Z,80.30
2017-08-26T14:18:28.185Z,80.60
2017-08-26T14:20:55.671Z,80.00
2017-08-26T14:23:23.158Z,80.10
2017-08-26T14:25:50.634Z,80.10
2017-08-26T14:28:18.131Z,80.10
2017-08-26T14:30:45.622Z,80.70
2017-08-26T14:33:13.147Z,80.50
2017-08-26T14:35:40.647Z,80.30
2017-08-26T14:38:08.150Z,80.20
2017-08-26T14:40:35.631Z,80.00
2017-08-26T14:43:03.130Z,80.30
2017-08-26T14:45:30.615Z,81.10
2017-08-26T14:47:59.090Z,81.60
2017-08-26T14:50:27.514Z,82.00
2017-08-26T14:52:55.010Z,82.90
2017-08-26T14:55:22.511Z,81.60
2017-08-26T14:57:50.001Z,79.20
2017-08-26T15:00:17.530Z,80.00
2017-08-26T15:02:45.018Z,80.70
2017-08-26T15:05:12.517Z,80.50
2017-08-26T15:07:40.030Z,80.50
2017-08-26T15:10:07.530Z,79.20
2017-08-26T15:12:35.015Z,78.80
2017-08-26T15:15:02.539Z,78.90
2017-08-26T15:17:30.966Z,79.00
2017-08-26T15:19:58.457Z,77.80
2017-08-26T15:22:25.977Z,77.80
2017-08-26T15:24:53.503Z,78.00
2017-08-26T15:27:20.986Z,78.00
2017-08-26T15:29:48.494Z,78.20
2017-08-26T15:32:15.979Z,78.80
2017-08-26T15:34:43.479Z,77.50
2017-08-26T15:37:10.971Z,78.00
2017-08-26T15:39:38.483Z,78.60
2017-08-26T15:42:05.971Z,78.50
2017-08-26T15:44:33.527Z,78.30
2017-08-26T15:47:01.007Z,76.60
2017-08-26T15:49:30.462Z,76.80
2017-08-26T15:51:57.950Z,75.70
2017-08-26T15:54:25.462Z,75.00
2017-08-26T15:56:52.942Z,76.40
2017-08-26T15:59:20.464Z,75.80
2017-08-26T16:01:47.952Z,75.90
2017-08-26T16:04:15.448Z,76.10
2017-08-26T16:06:42.950Z,77.00
2017-08-26T16:09:10.433Z,76.70
2017-08-26T16:11:37.967Z,76.30
2017-08-26T16:14:05.466Z,76.70
2017-08-26T16:16:32.934Z,77.10
2017-08-26T16:19:02.386Z,76.40
2017-08-26T16:21:29.859Z,77.40
2017-08-26T16:23:57.359Z,77.40
2017-08-26T16:26:24.835Z,78.40
2017-08-26T16:28:52.348Z,77.50
2017-08-26T16:31:19.838Z,78.50
2017-08-26T16:33:48.271Z,77.50
2017-08-26T16:36:15.762Z,78.60
2017-08-26T16:38:43.234Z,79.30
2017-08-26T16:41:10.739Z,79.50
2017-08-26T16:43:38.210Z,80.10
2017-08-26T16:46:06.747Z,80.10
2017-08-26T16:48:34.234Z,79.10
2017-08-26T16:51:01.781Z,79.30
2017-08-26T16:53:29.354Z,80.20
2017-08-26T16:55:56.867Z,80.80
2017-08-26T16:58:24.347Z,80.20
2017-08-26T17:00:51.850Z,80.60
2017-08-26T17:03:19.355Z,81.60
2017-08-26T17:05:46.864Z,80.70
2017-08-26T17:08:14.379Z,81.70
2017-08-26T17:10:41.867Z,82.50
2017-08-26T17:13:09.388Z,81.40
2017-08-26T17:15:36.909Z,82.10
2017-08-26T17:18:04.390Z,81.70
2017-08-26T17:20:31.898Z,82.30
2017-08-26T17:22:59.387Z,83.40
2017-08-26T17:25:26.924Z,83.80
2017-08-26T17:27:54.419Z,83.90
2017-08-26T17:30:21.952Z,84.20
2017-08-26T17:32:50.418Z,84.40
2017-08-26T17:35:17.939Z,85.00
2017-08-26T17:37:46.379Z,85.30
2017-08-26T17:40:13.891Z,85.70
2017-08-26T17:42:41.369Z,85.50
2017-08-26T17:45:08.866Z,85.90
2017-08-26T17:47:36.362Z,86.10
2017-08-26T17:50:03.852Z,86.40
2017-08-26T17:52:31.342Z,86.50
2017-08-26T17:54:58.854Z,86.60
2017-08-26T17:57:26.339Z,86.60
2017-08-26T17:59:53.850Z,86.50
2017-08-26T18:02:21.334Z,86.90
2017-08-26T18:04:48.876Z,87.10
2017-08-26T18:07:16.362Z,87.30
2017-08-26T18:09:43.867Z,87.40
2017-08-26T18:12:11.339Z,87.50
2017-08-26T18:14:40.779Z,87.60
2017-08-26T18:17:08.274Z,87.80
2017-08-26T18:19:35.770Z,87.80
2017-08-26T18:22:03.250Z,87.90
2017-08-26T18:24:30.750Z,88.20
2017-08-26T18:26:58.227Z,88.40
2017-08-26T18:29:25.722Z,88.70
2017-08-26T18:31:53.219Z,88.60
2017-08-26T18:34:20.715Z,89.00
2017-08-26T18:36:48.217Z,89.20
2017-08-26T18:39:15.714Z,89.30
2017-08-26T18:41:43.267Z,89.20
2017-08-26T18:44:12.710Z,89.50
2017-08-26T18:46:40.199Z,89.50
2017-08-26T18:49:07.693Z,89.70
2017-08-26T18:51:35.203Z,89.80
2017-08-26T18:54:02.702Z,89.70
2017-08-26T18:56:30.182Z,89.90
2017-08-26T18:58:59.641Z,90.00
2017-08-26T19:01:27.155Z,90.10
2017-08-26T19:03:55.580Z,90.40
2017-08-26T19:06:23.100Z,90.50
2017-08-26T19:08:50.622Z,90.90
2017-08-26T19:11:18.300Z,91.00
2017-08-26T19:13:45.888Z,90.60
2017-08-26T19:16:13.434Z,90.30
2017-08-26T19:18:40.966Z,90.50
2017-08-26T19:21:08.527Z,90.60
2017-08-26T19:23:36.071Z,90.70
2017-08-26T19:28:37.544Z,91.10
2017-08-26T19:31:05.061Z,91.00
2017-08-26T19:33:34.546Z,90.90
2017-08-26T19:36:02.519Z,91.00
2017-08-26T19:38:31.425Z,91.10
2017-08-26T19:40:58.950Z,91.10
2017-08-26T19:43:26.543Z,90.80
2017-08-26T19:45:54.069Z,90.80
2017-08-26T19:48:22.855Z,90.70
2017-08-26T19:50:50.455Z,90.90
2017-08-26T19:53:17.999Z,91.00
2017-08-26T19:55:45.619Z,91.10
2017-08-26T19:58:14.134Z,91.30
2017-08-26T20:00:41.639Z,91.40
2017-08-26T20:03:09.168Z,91.70
2017-08-26T20:05:36.720Z,91.90
2017-08-26T20:08:06.196Z,92.10
2017-08-26T20:10:33.742Z,92.40
2017-08-26T20:13:01.288Z,92.10
2017-08-26T20:15:28.875Z,92.20
2017-08-26T20:17:56.435Z,92.30
2017-08-26T20:20:23.948Z,92.40
2017-08-26T20:22:51.458Z,92.30
2017-08-26T20:25:18.982Z,92.20
2017-08-26T20:27:46.527Z,92.20
2017-08-26T20:30:15.025Z,92.30
2017-08-26T20:32:42.568Z,92.40
2017-08-26T20:35:10.088Z,92.40
2017-08-26T20:37:37.629Z,92.50
2017-08-26T20:40:05.182Z,92.60
2017-08-26T20:42:32.815Z,92.40
2017-08-26T20:45:00.358Z,92.50
2017-08-26T20:47:27.918Z,92.80
2017-08-26T20:49:55.509Z,92.90
2017-08-26T20:52:23.096Z,92.90
2017-08-26T20:54:50.665Z,93.00
2017-08-26T20:57:18.179Z,93.00
2017-08-26T20:59:47.523Z,92.70
2017-08-26T21:02:15.053Z,92.70
2017-08-26T21:04:42.604Z,92.60
2017-08-26T21:07:10.148Z,92.70
2017-08-26T21:09:38.667Z,92.90
2017-08-26T21:12:06.332Z,92.80
2017-08-26T21:14:33.847Z,92.90
2017-08-26T21:17:02.643Z,93.20
2017-08-26T21:19:30.166Z,93.40
2017-08-26T21:21:57.747Z,93.40
2017-08-26T21:24:25.317Z,93.50
2017-08-26T21:26:53.217Z,93.60
2017-08-26T21:29:22.767Z,93.50
2017-08-26T21:31:50.306Z,93.20
2017-08-26T21:34:19.820Z,93.10
2017-08-26T21:36:47.376Z,93.00
2017-08-26T21:39:14.944Z,92.90
2017-08-26T21:41:43.140Z,93.10
2017-08-26T21:44:10.784Z,93.20
2017-08-26T21:46:38.363Z,93.10
2017-08-26T21:49:05.876Z,93.10
2017-08-26T21:51:35.406Z,92.90
2017-08-26T21:54:02.983Z,93.10
2017-08-26T21:56:32.470Z,92.80
2017-08-26T21:58:59.997Z,92.70
2017-08-26T22:01:27.563Z,92.80
2017-08-26T22:03:55.149Z,92.80
2017-08-26T22:06:22.698Z,92.80
2017-08-26T22:08:50.252Z,93.00
2017-08-26T22:11:18.793Z,92.90
2017-08-26T22:13:46.361Z,92.80
2017-08-26T22:16:13.866Z,93.20
2017-08-26T22:18:41.412Z,93.20
2017-08-26T22:21:09.258Z,93.10
2017-08-26T22:23:37.313Z,93.20
2017-08-26T22:26:05.513Z,94.00
2017-08-26T22:28:33.043Z,93.70
2017-08-26T22:31:00.587Z,93.50
2017-08-26T22:33:28.145Z,93.90
2017-08-26T22:35:55.685Z,94.00
2017-08-26T22:38:23.215Z,94.00
2017-08-26T22:40:50.778Z,93.90
2017-08-26T22:43:18.282Z,93.50
2017-08-26T22:45:46.686Z,93.90
2017-08-26T22:48:14.331Z,94.00
2017-08-26T22:50:41.877Z,94.20
2017-08-26T22:53:09.511Z,94.20
2017-08-26T22:55:38.077Z,94.30
2017-08-26T22:58:06.724Z,94.40
2017-08-26T23:00:34.354Z,94.60
2017-08-26T23:03:05.262Z,94.50
2017-08-26T23:05:32.872Z,95.10
2017-08-26T23:08:00.398Z,95.70
2017-08-26T23:10:27.942Z,96.00
2017-08-26T23:12:55.479Z,96.40
2017-08-26T23:15:25.010Z,96.70
2017-08-26T23:17:52.573Z,96.90
2017-08-26T23:20:20.141Z,97.20
2017-08-26T23:22:48.571Z,97.20
2017-08-26T23:25:16.072Z,97.20
2017-08-26T23:27:43.579Z,97.10
2017-08-26T23:30:12.124Z,97.30
2017-08-26T23:32:39.653Z,97.40
2017-08-26T23:35:07.193Z,97.40
2017-08-26T23:37:34.745Z,97.40
2017-08-26T23:40:02.268Z,97.50
2017-08-26T23:42:29.817Z,97.70
2017-08-26T23:44:57.319Z,97.70
2017-08-26T23:47:24.853Z,97.70
2017-08-26T23:49:52.387Z,97.70
2017-08-26T23:52:19.926Z,97.60
2017-08-26T23:54:49.425Z,97.70
2017-08-26T23:57:16.955Z,97.90
2017-08-26T23:59:45.783Z,98.10
